Raymond, Ohio
Current Conditions -  °F | °C
As of 8:34 PM on Friday 24 Oct 2014 (Local Time) from KMRT Reporting Station
Broken Clouds Broken Clouds  
Wind Chill:   Ceiling: 4400
Heat Index:   Visibility: 10mi
Dew Point:   Wind: 3mph
Humidity: 72%   Direction: 250°WSW
Pressure: 30.03"   Gusts: NA
Location:  40.33°N, 83.47°W
Report Text: KMRT 250034Z AUTO 25003KT 10SM BKN044 09/04 A3003 RMK AO2 T00870039
Loading
Personal Weather Stations






























Interactive Weather Map
Tropical Storm Tracking
New forecast layout! Learn more

10-Day Weather Forecast

Advertisements
Track Severe Weather on mobile